sensor_id;sensor_type;location;lat;lon;timestamp;pressure;altitude;pressure_sealevel;temperature;humidity
67345;BME280;54230;52.402;6.276;2022-11-18T00:00:00;99620.0;;;8.0;95.0
67345;BME280;54230;52.402;6.276;2022-11-18T00:05:00;99620.0;;;7.9;95.1
67345;BME280;54230;52.402;6.276;2022-11-18T00:10:00;99630.0;;;7.9;95.4
67345;BME280;54230;52.402;6.276;2022-11-18T00:15:00;99640.0;;;7.8;95.3
67345;BME280;54230;52.402;6.276;2022-11-18T00:20:00;99640.0;;;7.8;95.5
67345;BME280;54230;52.402;6.276;2022-11-18T00:25:00;99630.0;;;7.6;96.0
67345;BME280;54230;52.402;6.276;2022-11-18T00:30:00;99660.0;;;7.7;96.1
67345;BME280;54230;52.402;6.276;2022-11-18T00:35:00;99660.0;;;7.8;96.1
67345;BME280;54230;52.402;6.276;2022-11-18T00:40:00;99660.0;;;7.9;96.0
67345;BME280;54230;52.402;6.276;2022-11-18T00:45:00;99660.0;;;8.0;95.8
67345;BME280;54230;52.402;6.276;2022-11-18T00:50:00;99670.0;;;8.1;95.6
67345;BME280;54230;52.402;6.276;2022-11-18T00:55:00;99670.0;;;8.1;95.5
67345;BME280;54230;52.402;6.276;2022-11-18T01:00:00;99680.0;;;8.1;95.6
67345;BME280;54230;52.402;6.276;2022-11-18T01:05:00;99680.0;;;8.2;96.0
67345;BME280;54230;52.402;6.276;2022-11-18T01:10:00;99680.0;;;8.3;95.9
67345;BME280;54230;52.402;6.276;2022-11-18T01:15:00;99690.0;;;8.3;95.9
67345;BME280;54230;52.402;6.276;2022-11-18T01:20:00;99690.0;;;8.4;95.7
67345;BME280;54230;52.402;6.276;2022-11-18T01:25:00;99700.0;;;8.4;95.5
67345;BME280;54230;52.402;6.276;2022-11-18T01:30:00;99700.0;;;8.4;95.6
67345;BME280;54230;52.402;6.276;2022-11-18T01:35:00;99710.0;;;8.5;95.4
67345;BME280;54230;52.402;6.276;2022-11-18T01:40:00;99710.0;;;8.5;95.1
67345;BME280;54230;52.402;6.276;2022-11-18T01:45:06;99710.0;;;8.5;95.2
67345;BME280;54230;52.402;6.276;2022-11-18T01:50:00;99710.0;;;8.4;95.4
67345;BME280;54230;52.402;6.276;2022-11-18T01:55:05;99710.0;;;8.3;95.6
67345;BME280;54230;52.402;6.276;2022-11-18T02:00:01;99720.0;;;8.2;96.2
67345;BME280;54230;52.402;6.276;2022-11-18T02:05:02;99730.0;;;8.1;96.7
67345;BME280;54230;52.402;6.276;2022-11-18T02:10:01;99730.0;;;8.0;97.0
67345;BME280;54230;52.402;6.276;2022-11-18T02:15:00;99740.0;;;8.0;97.1
67345;BME280;54230;52.402;6.276;2022-11-18T02:20:16;99740.0;;;8.0;97.4
67345;BME280;54230;52.402;6.276;2022-11-18T02:25:04;99750.0;;;8.1;97.2
67345;BME280;54230;52.402;6.276;2022-11-18T02:30:02;99750.0;;;8.2;96.9
67345;BME280;54230;52.402;6.276;2022-11-18T02:35:02;99750.0;;;8.2;96.9
67345;BME280;54230;52.402;6.276;2022-11-18T02:40:05;99750.0;;;8.3;96.8
67345;BME280;54230;52.402;6.276;2022-11-18T02:45:03;99750.0;;;8.4;96.3
67345;BME280;54230;52.402;6.276;2022-11-18T02:50:03;99760.0;;;8.5;96.0
67345;BME280;54230;52.402;6.276;2022-11-18T02:55:02;99760.0;;;8.5;95.8
67345;BME280;54230;52.402;6.276;2022-11-18T03:00:00;99760.0;;;8.6;95.9
67345;BME280;54230;52.402;6.276;2022-11-18T03:05:00;99770.0;;;8.6;95.7
67345;BME280;54230;52.402;6.276;2022-11-18T03:10:01;99780.0;;;8.6;95.5
67345;BME280;54230;52.402;6.276;2022-11-18T03:15:06;99780.0;;;8.6;95.5
67345;BME280;54230;52.402;6.276;2022-11-18T03:20:10;99790.0;;;8.6;95.5
67345;BME280;54230;52.402;6.276;2022-11-18T03:25:03;99780.0;;;8.5;95.6
67345;BME280;54230;52.402;6.276;2022-11-18T03:30:03;99810.0;;;8.6;95.9
67345;BME280;54230;52.402;6.276;2022-11-18T03:35:02;99810.0;;;8.6;96.0
67345;BME280;54230;52.402;6.276;2022-11-18T03:40:08;99820.0;;;8.7;96.1
67345;BME280;54230;52.402;6.276;2022-11-18T03:45:03;99820.0;;;8.7;95.9
67345;BME280;54230;52.402;6.276;2022-11-18T03:50:04;99830.0;;;8.7;96.1
67345;BME280;54230;52.402;6.276;2022-11-18T03:55:03;99830.0;;;8.6;96.1
67345;BME280;54230;52.402;6.276;2022-11-18T04:00:05;99840.0;;;8.6;96.2
67345;BME280;54230;52.402;6.276;2022-11-18T04:05:02;99850.0;;;8.6;96.5
67345;BME280;54230;52.402;6.276;2022-11-18T04:10:03;99850.0;;;8.6;96.5
67345;BME280;54230;52.402;6.276;2022-11-18T04:15:00;99860.0;;;8.7;96.4
67345;BME280;54230;52.402;6.276;2022-11-18T04:20:00;99860.0;;;8.7;96.5
67345;BME280;54230;52.402;6.276;2022-11-18T04:25:00;99870.0;;;8.7;96.4
67345;BME280;54230;52.402;6.276;2022-11-18T04:30:00;99870.0;;;8.7;96.6
67345;BME280;54230;52.402;6.276;2022-11-18T04:35:00;99870.0;;;8.6;96.4
67345;BME280;54230;52.402;6.276;2022-11-18T04:40:00;99880.0;;;8.6;96.5
67345;BME280;54230;52.402;6.276;2022-11-18T04:45:00;99890.0;;;8.6;96.5
67345;BME280;54230;52.402;6.276;2022-11-18T04:50:00;99890.0;;;8.6;96.5
67345;BME280;54230;52.402;6.276;2022-11-18T04:55:00;99900.0;;;8.7;96.3
67345;BME280;54230;52.402;6.276;2022-11-18T05:00:00;99910.0;;;8.7;96.0
67345;BME280;54230;52.402;6.276;2022-11-18T05:05:00;99910.0;;;8.7;96.2
67345;BME280;54230;52.402;6.276;2022-11-18T05:10:00;99910.0;;;8.7;96.1
67345;BME280;54230;52.402;6.276;2022-11-18T05:15:00;99920.0;;;8.7;96.6
67345;BME280;54230;52.402;6.276;2022-11-18T05:20:00;99930.0;;;8.7;96.3
67345;BME280;54230;52.402;6.276;2022-11-18T05:25:00;99930.0;;;8.7;96.7
67345;BME280;54230;52.402;6.276;2022-11-18T05:30:00;99940.0;;;8.7;96.6
67345;BME280;54230;52.402;6.276;2022-11-18T05:35:00;99950.0;;;8.7;97.0
67345;BME280;54230;52.402;6.276;2022-11-18T05:40:00;99950.0;;;8.7;97.0
67345;BME280;54230;52.402;6.276;2022-11-18T05:45:00;99960.0;;;8.8;97.5
67345;BME280;54230;52.402;6.276;2022-11-18T05:50:00;99970.0;;;8.8;97.5
67345;BME280;54230;52.402;6.276;2022-11-18T05:55:00;99970.0;;;8.7;97.9
67345;BME280;54230;52.402;6.276;2022-11-18T06:00:00;99970.0;;;8.7;98.2
67345;BME280;54230;52.402;6.276;2022-11-18T06:05:02;99980.0;;;8.6;98.3
67345;BME280;54230;52.402;6.276;2022-11-18T06:10:00;99980.0;;;8.6;98.6
67345;BME280;54230;52.402;6.276;2022-11-18T06:15:02;99980.0;;;8.6;98.6
67345;BME280;54230;52.402;6.276;2022-11-18T06:20:01;99990.0;;;8.6;98.9
67345;BME280;54230;52.402;6.276;2022-11-18T06:25:00;100000.0;;;8.6;99.1
67345;BME280;54230;52.402;6.276;2022-11-18T06:30:00;100010.0;;;8.6;99.0
67345;BME280;54230;52.402;6.276;2022-11-18T06:35:00;100010.0;;;8.6;99.1
67345;BME280;54230;52.402;6.276;2022-11-18T06:40:00;100020.0;;;8.5;99.4
67345;BME280;54230;52.402;6.276;2022-11-18T06:45:00;100030.0;;;8.5;99.5
67345;BME280;54230;52.402;6.276;2022-11-18T06:50:00;100040.0;;;8.5;99.7
67345;BME280;54230;52.402;6.276;2022-11-18T06:55:00;100040.0;;;8.5;99.6
67345;BME280;54230;52.402;6.276;2022-11-18T07:00:00;100050.0;;;8.5;99.6
67345;BME280;54230;52.402;6.276;2022-11-18T07:05:00;100060.0;;;8.5;99.8
67345;BME280;54230;52.402;6.276;2022-11-18T07:10:00;100070.0;;;8.6;99.5
67345;BME280;54230;52.402;6.276;2022-11-18T07:15:00;100080.0;;;8.6;99.5
67345;BME280;54230;52.402;6.276;2022-11-18T07:20:00;100090.0;;;8.6;99.1
67345;BME280;54230;52.402;6.276;2022-11-18T07:25:00;100100.0;;;8.6;99.2
67345;BME280;54230;52.402;6.276;2022-11-18T07:30:00;100100.0;;;8.6;99.4
67345;BME280;54230;52.402;6.276;2022-11-18T07:35:00;100110.0;;;8.6;99.2
67345;BME280;54230;52.402;6.276;2022-11-18T07:40:00;100110.0;;;8.6;99.6
67345;BME280;54230;52.402;6.276;2022-11-18T07:45:00;100120.0;;;8.7;99.0
67345;BME280;54230;52.402;6.276;2022-11-18T07:50:00;100120.0;;;8.7;99.6
67345;BME280;54230;52.402;6.276;2022-11-18T07:55:00;100130.0;;;8.8;99.8
67345;BME280;54230;52.402;6.276;2022-11-18T08:00:00;100110.0;;;8.7;100.0
67345;BME280;54230;52.402;6.276;2022-11-18T08:05:00;100140.0;;;8.8;99.8
67345;BME280;54230;52.402;6.276;2022-11-18T08:10:00;100150.0;;;8.9;100.0
67345;BME280;54230;52.402;6.276;2022-11-18T08:15:00;100160.0;;;8.9;100.0
67345;BME280;54230;52.402;6.276;2022-11-18T08:20:00;100170.0;;;9.0;100.0
67345;BME280;54230;52.402;6.276;2022-11-18T08:25:00;100170.0;;;9.0;100.0
67345;BME280;54230;52.402;6.276;2022-11-18T08:30:00;100170.0;;;9.0;100.0
67345;BME280;54230;52.402;6.276;2022-11-18T08:35:00;100180.0;;;9.0;100.0
67345;BME280;54230;52.402;6.276;2022-11-18T08:40:00;100190.0;;;9.1;100.0
67345;BME280;54230;52.402;6.276;2022-11-18T08:45:00;100200.0;;;9.1;100.0
67345;BME280;54230;52.402;6.276;2022-11-18T08:50:00;100210.0;;;9.2;100.0
67345;BME280;54230;52.402;6.276;2022-11-18T08:55:00;100220.0;;;9.3;100.0
67345;BME280;54230;52.402;6.276;2022-11-18T09:00:00;100200.0;;;9.3;100.0
67345;BME280;54230;52.402;6.276;2022-11-18T09:05:00;100230.0;;;9.5;99.9
67345;BME280;54230;52.402;6.276;2022-11-18T09:10:00;100230.0;;;9.5;99.8
67345;BME280;54230;52.402;6.276;2022-11-18T09:15:00;100240.0;;;9.6;99.7
67345;BME280;54230;52.402;6.276;2022-11-18T09:20:00;100240.0;;;9.6;99.4
67345;BME280;54230;52.402;6.276;2022-11-18T09:25:01;100240.0;;;9.7;98.8
67345;BME280;54230;52.402;6.276;2022-11-18T09:30:00;100240.0;;;9.7;98.6
67345;BME280;54230;52.402;6.276;2022-11-18T09:35:00;100240.0;;;9.8;98.4
67345;BME280;54230;52.402;6.276;2022-11-18T09:40:00;100240.0;;;9.9;97.4
67345;BME280;54230;52.402;6.276;2022-11-18T09:45:12;100250.0;;;9.9;97.0
67345;BME280;54230;52.402;6.276;2022-11-18T09:50:02;100250.0;;;10.1;97.0
67345;BME280;54230;52.402;6.276;2022-11-18T09:55:00;100260.0;;;10.1;96.6
67345;BME280;54230;52.402;6.276;2022-11-18T10:00:00;100270.0;;;10.1;96.7
67345;BME280;54230;52.402;6.276;2022-11-18T10:05:11;100270.0;;;10.3;96.0
67345;BME280;54230;52.402;6.276;2022-11-18T10:10:02;100270.0;;;10.5;96.0
67345;BME280;54230;52.402;6.276;2022-11-18T10:15:10;100270.0;;;10.7;95.4
67345;BME280;54230;52.402;6.276;2022-11-18T10:20:11;100290.0;;;10.8;95.0
67345;BME280;54230;52.402;6.276;2022-11-18T10:25:00;100290.0;;;10.8;94.2
67345;BME280;54230;52.402;6.276;2022-11-18T10:30:00;100300.0;;;10.8;94.2
67345;BME280;54230;52.402;6.276;2022-11-18T10:35:00;100300.0;;;10.7;94.3
67345;BME280;54230;52.402;6.276;2022-11-18T10:40:02;100300.0;;;10.7;94.1
67345;BME280;54230;52.402;6.276;2022-11-18T10:45:13;100300.0;;;10.7;94.9
67345;BME280;54230;52.402;6.276;2022-11-18T10:50:00;100310.0;;;10.7;95.0
67345;BME280;54230;52.402;6.276;2022-11-18T10:55:18;100310.0;;;10.9;94.9
67345;BME280;54230;52.402;6.276;2022-11-18T11:00:00;100300.0;;;11.1;94.2
67345;BME280;54230;52.402;6.276;2022-11-18T11:05:02;100310.0;;;11.3;92.4
67345;BME280;54230;52.402;6.276;2022-11-18T11:10:16;100310.0;;;11.4;91.7
67345;BME280;54230;52.402;6.276;2022-11-18T11:15:02;100310.0;;;11.3;91.5
67345;BME280;54230;52.402;6.276;2022-11-18T11:20:04;100320.0;;;11.1;91.9
67345;BME280;54230;52.402;6.276;2022-11-18T11:25:00;100320.0;;;11.2;92.0
67345;BME280;54230;52.402;6.276;2022-11-18T11:30:04;100330.0;;;11.2;91.8
67345;BME280;54230;52.402;6.276;2022-11-18T11:35:06;100330.0;;;11.1;91.3
67345;BME280;54230;52.402;6.276;2022-11-18T11:40:10;100340.0;;;10.9;91.7
67345;BME280;54230;52.402;6.276;2022-11-18T11:45:12;100340.0;;;10.8;92.3
67345;BME280;54230;52.402;6.276;2022-11-18T11:50:01;100340.0;;;10.7;92.4
67345;BME280;54230;52.402;6.276;2022-11-18T11:55:06;100350.0;;;10.8;92.1
67345;BME280;54230;52.402;6.276;2022-11-18T12:00:02;100350.0;;;11.0;91.3
67345;BME280;54230;52.402;6.276;2022-11-18T12:05:03;100350.0;;;11.0;90.9
67345;BME280;54230;52.402;6.276;2022-11-18T12:10:04;100350.0;;;10.9;89.9
67345;BME280;54230;52.402;6.276;2022-11-18T12:30:00;100360.0;;;10.7;90.3
67345;BME280;54230;52.402;6.276;2022-11-18T12:35:02;100370.0;;;10.8;90.3
67345;BME280;54230;52.402;6.276;2022-11-18T12:40:00;100370.0;;;10.7;90.7
67345;BME280;54230;52.402;6.276;2022-11-18T12:50:10;100380.0;;;10.2;92.2
67345;BME280;54230;52.402;6.276;2022-11-18T12:55:02;100380.0;;;10.2;92.1
67345;BME280;54230;52.402;6.276;2022-11-18T13:00:25;100390.0;;;10.0;92.3
67345;BME280;54230;52.402;6.276;2022-11-18T13:05:02;100400.0;;;10.0;92.9
67345;BME280;54230;52.402;6.276;2022-11-18T13:10:00;100400.0;;;10.0;92.9
67345;BME280;54230;52.402;6.276;2022-11-18T13:15:00;100400.0;;;10.0;93.0
67345;BME280;54230;52.402;6.276;2022-11-18T13:20:00;100410.0;;;9.9;93.7
67345;BME280;54230;52.402;6.276;2022-11-18T13:25:00;100420.0;;;9.8;93.6
67345;BME280;54230;52.402;6.276;2022-11-18T13:30:03;100430.0;;;9.6;93.2
67345;BME280;54230;52.402;6.276;2022-11-18T13:35:09;100420.0;;;9.4;93.9
67345;BME280;54230;52.402;6.276;2022-11-18T13:40:00;100430.0;;;9.3;94.1
67345;BME280;54230;52.402;6.276;2022-11-18T13:45:01;100440.0;;;9.3;93.8
67345;BME280;54230;52.402;6.276;2022-11-18T13:50:05;100440.0;;;9.3;93.7
67345;BME280;54230;52.402;6.276;2022-11-18T13:55:00;100440.0;;;9.2;93.6
67345;BME280;54230;52.402;6.276;2022-11-18T14:00:03;100440.0;;;9.2;93.7
67345;BME280;54230;52.402;6.276;2022-11-18T14:05:00;100450.0;;;9.0;93.3
67345;BME280;54230;52.402;6.276;2022-11-18T14:10:01;100440.0;;;9.0;93.3
67345;BME280;54230;52.402;6.276;2022-11-18T14:15:11;100450.0;;;8.9;93.1
67345;BME280;54230;52.402;6.276;2022-11-18T14:20:06;100450.0;;;8.8;93.3
67345;BME280;54230;52.402;6.276;2022-11-18T14:25:02;100460.0;;;8.7;93.3
67345;BME280;54230;52.402;6.276;2022-11-18T14:30:00;100470.0;;;8.7;93.1
67345;BME280;54230;52.402;6.276;2022-11-18T14:35:00;100490.0;;;8.5;92.7
67345;BME280;54230;52.402;6.276;2022-11-18T14:40:00;100490.0;;;8.5;93.3
67345;BME280;54230;52.402;6.276;2022-11-18T14:45:00;100500.0;;;8.3;92.7
67345;BME280;54230;52.402;6.276;2022-11-18T14:50:00;100510.0;;;8.1;93.2
67345;BME280;54230;52.402;6.276;2022-11-18T14:55:00;100510.0;;;8.0;93.5
67345;BME280;54230;52.402;6.276;2022-11-18T15:00:00;100510.0;;;8.0;93.1
67345;BME280;54230;52.402;6.276;2022-11-18T15:05:00;100520.0;;;7.9;93.1
67345;BME280;54230;52.402;6.276;2022-11-18T15:10:00;100530.0;;;7.8;93.5
67345;BME280;54230;52.402;6.276;2022-11-18T15:15:00;100540.0;;;7.7;93.4
67345;BME280;54230;52.402;6.276;2022-11-18T15:20:00;100540.0;;;7.6;92.7
67345;BME280;54230;52.402;6.276;2022-11-18T15:25:00;100550.0;;;7.4;93.3
67345;BME280;54230;52.402;6.276;2022-11-18T15:30:00;100550.0;;;7.3;93.0
67345;BME280;54230;52.402;6.276;2022-11-18T15:35:00;100550.0;;;7.2;93.6
67345;BME280;54230;52.402;6.276;2022-11-18T15:40:00;100550.0;;;7.1;94.0
67345;BME280;54230;52.402;6.276;2022-11-18T15:45:00;100560.0;;;7.0;94.5
67345;BME280;54230;52.402;6.276;2022-11-18T15:50:00;100560.0;;;7.0;94.2
67345;BME280;54230;52.402;6.276;2022-11-18T15:55:00;100570.0;;;6.8;94.2
67345;BME280;54230;52.402;6.276;2022-11-18T16:00:00;100580.0;;;6.8;94.2
67345;BME280;54230;52.402;6.276;2022-11-18T16:05:00;100580.0;;;6.8;93.9
67345;BME280;54230;52.402;6.276;2022-11-18T16:10:00;100590.0;;;6.7;93.7
67345;BME280;54230;52.402;6.276;2022-11-18T16:15:00;100600.0;;;6.6;93.7
67345;BME280;54230;52.402;6.276;2022-11-18T16:20:00;100600.0;;;6.5;93.8
67345;BME280;54230;52.402;6.276;2022-11-18T16:25:00;100590.0;;;6.3;94.0
67345;BME280;54230;52.402;6.276;2022-11-18T16:30:00;100610.0;;;6.3;93.5
67345;BME280;54230;52.402;6.276;2022-11-18T16:35:00;100620.0;;;6.2;93.9
67345;BME280;54230;52.402;6.276;2022-11-18T16:40:00;100620.0;;;6.2;93.6
67345;BME280;54230;52.402;6.276;2022-11-18T16:45:00;100630.0;;;6.1;93.2
67345;BME280;54230;52.402;6.276;2022-11-18T16:50:00;100640.0;;;6.1;93.2
67345;BME280;54230;52.402;6.276;2022-11-18T16:55:00;100630.0;;;5.9;93.0
67345;BME280;54230;52.402;6.276;2022-11-18T17:00:00;100650.0;;;6.1;92.3
67345;BME280;54230;52.402;6.276;2022-11-18T17:05:00;100650.0;;;5.9;92.2
67345;BME280;54230;52.402;6.276;2022-11-18T17:10:00;100660.0;;;5.8;92.9
67345;BME280;54230;52.402;6.276;2022-11-18T17:15:00;100660.0;;;5.8;92.0
67345;BME280;54230;52.402;6.276;2022-11-18T17:20:00;100670.0;;;5.7;91.8
67345;BME280;54230;52.402;6.276;2022-11-18T17:25:00;100660.0;;;5.5;91.5
67345;BME280;54230;52.402;6.276;2022-11-18T17:30:00;100680.0;;;5.7;91.4
67345;BME280;54230;52.402;6.276;2022-11-18T17:35:00;100700.0;;;5.6;91.5
67345;BME280;54230;52.402;6.276;2022-11-18T17:40:00;100700.0;;;5.6;90.9
67345;BME280;54230;52.402;6.276;2022-11-18T17:45:00;100710.0;;;5.5;91.7
67345;BME280;54230;52.402;6.276;2022-11-18T17:50:00;100710.0;;;5.4;90.6
67345;BME280;54230;52.402;6.276;2022-11-18T17:55:00;100710.0;;;5.3;91.0
67345;BME280;54230;52.402;6.276;2022-11-18T18:00:00;100730.0;;;5.3;91.6
67345;BME280;54230;52.402;6.276;2022-11-18T18:05:00;100740.0;;;5.2;92.0
67345;BME280;54230;52.402;6.276;2022-11-18T18:10:00;100740.0;;;5.1;92.3
67345;BME280;54230;52.402;6.276;2022-11-18T18:15:00;100750.0;;;5.0;92.2
67345;BME280;54230;52.402;6.276;2022-11-18T18:20:00;100760.0;;;4.9;92.4
67345;BME280;54230;52.402;6.276;2022-11-18T18:25:00;100760.0;;;4.8;92.2
67345;BME280;54230;52.402;6.276;2022-11-18T18:30:00;100770.0;;;4.7;92.1
67345;BME280;54230;52.402;6.276;2022-11-18T18:35:00;100780.0;;;4.7;92.1
67345;BME280;54230;52.402;6.276;2022-11-18T18:40:00;100780.0;;;4.6;92.6
67345;BME280;54230;52.402;6.276;2022-11-18T18:45:00;100780.0;;;4.5;91.9
67345;BME280;54230;52.402;6.276;2022-11-18T18:50:00;100800.0;;;4.6;92.3
67345;BME280;54230;52.402;6.276;2022-11-18T18:55:00;100800.0;;;4.4;91.8
67345;BME280;54230;52.402;6.276;2022-11-18T19:00:00;100800.0;;;4.4;92.6
67345;BME280;54230;52.402;6.276;2022-11-18T19:05:00;100800.0;;;4.5;91.7
67345;BME280;54230;52.402;6.276;2022-11-18T19:10:00;100800.0;;;4.3;91.3
67345;BME280;54230;52.402;6.276;2022-11-18T19:15:00;100810.0;;;4.3;91.1
67345;BME280;54230;52.402;6.276;2022-11-18T19:20:00;100810.0;;;4.1;91.5
67345;BME280;54230;52.402;6.276;2022-11-18T19:25:00;100820.0;;;4.1;91.6
67345;BME280;54230;52.402;6.276;2022-11-18T19:30:00;100830.0;;;3.9;91.1
67345;BME280;54230;52.402;6.276;2022-11-18T19:35:00;100840.0;;;3.9;91.3
67345;BME280;54230;52.402;6.276;2022-11-18T19:40:00;100850.0;;;3.9;91.2
67345;BME280;54230;52.402;6.276;2022-11-18T19:45:00;100860.0;;;4.0;90.4
67345;BME280;54230;52.402;6.276;2022-11-18T19:50:00;100860.0;;;3.7;90.3
67345;BME280;54230;52.402;6.276;2022-11-18T19:55:00;100860.0;;;3.7;89.6
67345;BME280;54230;52.402;6.276;2022-11-18T20:00:00;100880.0;;;3.6;89.1
67345;BME280;54230;52.402;6.276;2022-11-18T20:05:01;100880.0;;;3.5;89.3
67345;BME280;54230;52.402;6.276;2022-11-18T20:10:00;100860.0;;;3.3;88.9
67345;BME280;54230;52.402;6.276;2022-11-18T20:15:00;100880.0;;;3.5;89.0
67345;BME280;54230;52.402;6.276;2022-11-18T20:20:00;100880.0;;;3.5;89.1
67345;BME280;54230;52.402;6.276;2022-11-18T20:25:00;100880.0;;;3.5;88.8
67345;BME280;54230;52.402;6.276;2022-11-18T20:30:00;100890.0;;;3.5;89.3
67345;BME280;54230;52.402;6.276;2022-11-18T20:35:00;100900.0;;;3.6;89.0
67345;BME280;54230;52.402;6.276;2022-11-18T20:40:00;100910.0;;;3.6;89.1
67345;BME280;54230;52.402;6.276;2022-11-18T20:45:00;100910.0;;;3.6;88.6
67345;BME280;54230;52.402;6.276;2022-11-18T20:50:00;100920.0;;;3.5;88.4
67345;BME280;54230;52.402;6.276;2022-11-18T20:55:00;100920.0;;;3.5;88.4
67345;BME280;54230;52.402;6.276;2022-11-18T21:00:00;100910.0;;;3.3;87.6
67345;BME280;54230;52.402;6.276;2022-11-18T21:05:00;100940.0;;;3.3;87.8
67345;BME280;54230;52.402;6.276;2022-11-18T21:10:00;100940.0;;;3.2;87.7
67345;BME280;54230;52.402;6.276;2022-11-18T21:15:00;100950.0;;;3.2;87.6
67345;BME280;54230;52.402;6.276;2022-11-18T21:20:00;100950.0;;;3.2;87.3
67345;BME280;54230;52.402;6.276;2022-11-18T21:25:00;100960.0;;;3.1;87.9
67345;BME280;54230;52.402;6.276;2022-11-18T21:30:00;100960.0;;;3.2;87.8
67345;BME280;54230;52.402;6.276;2022-11-18T21:35:00;100960.0;;;3.2;86.8
67345;BME280;54230;52.402;6.276;2022-11-18T21:40:00;100960.0;;;3.2;86.4
67345;BME280;54230;52.402;6.276;2022-11-18T21:45:00;100960.0;;;3.2;86.2
67345;BME280;54230;52.402;6.276;2022-11-18T21:50:00;100970.0;;;3.2;86.7
67345;BME280;54230;52.402;6.276;2022-11-18T21:55:00;100970.0;;;3.2;86.2
67345;BME280;54230;52.402;6.276;2022-11-18T22:00:00;100960.0;;;3.1;86.2
67345;BME280;54230;52.402;6.276;2022-11-18T22:05:00;100960.0;;;3.2;86.8
67345;BME280;54230;52.402;6.276;2022-11-18T22:10:00;100960.0;;;3.1;85.9
67345;BME280;54230;52.402;6.276;2022-11-18T22:15:00;100970.0;;;3.1;86.0
67345;BME280;54230;52.402;6.276;2022-11-18T22:20:00;100980.0;;;3.2;85.8
67345;BME280;54230;52.402;6.276;2022-11-18T22:25:00;100980.0;;;3.2;86.0
67345;BME280;54230;52.402;6.276;2022-11-18T22:30:00;100980.0;;;3.2;85.8
67345;BME280;54230;52.402;6.276;2022-11-18T22:35:00;100990.0;;;3.1;85.7
67345;BME280;54230;52.402;6.276;2022-11-18T22:40:00;100990.0;;;2.9;86.0
67345;BME280;54230;52.402;6.276;2022-11-18T22:45:00;100980.0;;;3.0;86.3
67345;BME280;54230;52.402;6.276;2022-11-18T22:50:00;100990.0;;;3.0;86.8
67345;BME280;54230;52.402;6.276;2022-11-18T22:55:00;100990.0;;;3.0;86.6
67345;BME280;54230;52.402;6.276;2022-11-18T23:00:00;101000.0;;;3.0;87.0
67345;BME280;54230;52.402;6.276;2022-11-18T23:05:00;101010.0;;;2.9;86.3
67345;BME280;54230;52.402;6.276;2022-11-18T23:10:00;101010.0;;;2.8;87.2
67345;BME280;54230;52.402;6.276;2022-11-18T23:15:00;101030.0;;;2.8;86.9
67345;BME280;54230;52.402;6.276;2022-11-18T23:20:00;101030.0;;;2.7;86.3
67345;BME280;54230;52.402;6.276;2022-11-18T23:25:00;101030.0;;;2.6;86.5
67345;BME280;54230;52.402;6.276;2022-11-18T23:30:00;101030.0;;;2.6;87.0
67345;BME280;54230;52.402;6.276;2022-11-18T23:35:00;101030.0;;;2.5;86.5
67345;BME280;54230;52.402;6.276;2022-11-18T23:40:00;101010.0;;;2.3;86.8
67345;BME280;54230;52.402;6.276;2022-11-18T23:45:00;101040.0;;;2.4;86.9
67345;BME280;54230;52.402;6.276;2022-11-18T23:50:00;101040.0;;;2.3;86.4
67345;BME280;54230;52.402;6.276;2022-11-18T23:55:00;101050.0;;;2.3;86.5
